Time;durP1;ratioP1;P1;durP2;ratioP2;P2;SDS_P1;SDS_P2;PMS_P1;PMS_P2;Temp;Humidity;BMP_temperature;BMP_pressure;BME280_temperature;BME280_humidity;BME280_pressure;Samples;Min_cycle;Max_cycle;Signal;HPM_P1;HPM_P2
2021/12/09 02:09:41;;;;;;;;;2.00;2.00;;;;;5.77;64.04;100264.13;5176678;22;45923;-55
2021/12/09 02:12:07;;;;;;;;;1.00;0.25;;;;;5.79;63.79;100267.50;4972761;28;46767;-56
2021/12/09 02:14:33;;;;;;;;;4.25;1.00;;;;;5.79;64.06;100264.03;4976034;28;45392;-50
2021/12/09 02:16:58;;;;;;;;;0.00;0.00;;;;;5.78;63.63;100259.72;4976204;28;45421;-49
2021/12/09 02:19:24;;;;;;;;;4.00;0.00;;;;;5.77;64.30;100261.50;4980088;28;45354;-56
2021/12/09 02:21:50;;;;;;;;;1.75;0.00;;;;;5.79;64.55;100261.41;4980399;28;45469;-55
2021/12/09 02:24:16;;;;;;;;;1.00;1.00;;;;;5.78;64.54;100263.19;4979597;28;46015;-48
2021/12/09 02:26:46;;;;;;;;;2.00;2.00;;;;;5.77;64.20;100258.88;4979192;28;45462;-49
2021/12/09 02:29:14;;;;;;;;;0.50;0.00;;;;;5.78;64.25;100260.56;4980002;28;45422;-50
2021/12/09 02:31:40;;;;;;;;;2.00;0.50;;;;;5.78;63.87;100265.00;4980135;28;45326;-49
2021/12/09 02:34:07;;;;;;;;;0.75;0.75;;;;;5.76;64.59;100268.59;4979899;28;45426;-49
2021/12/09 02:36:37;;;;;;;;;5.00;1.00;;;;;5.67;64.79;100264.06;4979698;28;45380;-51
2021/12/09 02:39:07;;;;;;;;;0.50;0.50;;;;;5.65;64.33;100266.03;4980032;28;45483;-52
2021/12/09 02:41:33;;;;;;;;;4.00;0.00;;;;;5.65;64.71;100271.28;4979886;28;45625;-52
2021/12/09 02:44:02;;;;;;;;;1.00;1.00;;;;;5.64;64.97;100264.31;4979490;28;45934;-51
2021/12/09 02:46:29;;;;;;;;;1.00;1.00;;;;;5.65;64.41;100271.28;4979785;28;45391;-47
2021/12/09 02:48:55;;;;;;;;;1.00;0.00;;;;;5.61;64.61;100263.75;4978793;28;45323;-56
2021/12/09 02:51:20;;;;;;;;;0.00;0.00;;;;;5.56;64.86;100271.19;4979930;28;45468;-49
2021/12/09 02:53:46;;;;;;;;;1.00;1.00;;;;;5.58;65.05;100264.84;4979716;28;45398;-54
2021/12/09 02:56:12;;;;;;;;;2.00;1.00;;;;;5.58;65.36;100272.75;4979648;28;45484;-56
2021/12/09 02:58:38;;;;;;;;;0.00;0.00;;;;;5.51;64.90;100266.31;4979928;28;45408;-48
2021/12/09 03:01:14;;;;;;;;;2.00;0.75;;;;;5.51;64.91;100263.66;4979557;28;45333;-55
2021/12/09 03:03:51;;;;;;;;;4.25;1.75;;;;;5.39;66.05;100249.66;4976828;28;46588;-49
2021/12/09 03:06:22;;;;;;;;;1.25;0.50;;;;;5.41;65.66;100276.78;4976786;28;45580;-47
2021/12/09 03:08:48;;;;;;;;;1.50;0.75;;;;;5.44;65.04;100278.34;4977716;28;45477;-48
2021/12/09 03:11:17;;;;;;;;;0.00;0.00;;;;;5.46;65.58;100274.59;4979157;28;45257;-47
2021/12/09 03:13:44;;;;;;;;;2.75;0.00;;;;;5.44;65.12;100281.81;4979149;28;45983;-55
2021/12/09 03:16:09;;;;;;;;;1.00;1.00;;;;;5.30;65.77;100260.97;4979507;28;45430;-48
2021/12/09 03:18:44;;;;;;;;;1.00;0.00;;;;;5.40;66.23;100280.38;4979243;28;45374;-47
2021/12/09 03:21:21;;;;;;;;;1.00;0.75;;;;;5.39;65.01;100276.03;4979403;28;45625;-57
2021/12/09 03:23:47;;;;;;;;;0.00;0.00;;;;;5.41;65.82;100283.84;4978293;28;46272;-47
2021/12/09 03:26:14;;;;;;;;;0.50;0.25;;;;;5.41;65.50;100276.78;4978996;28;45573;-47
2021/12/09 03:28:40;;;;;;;;;0.00;0.00;;;;;5.45;65.12;100277.38;4978926;28;45327;-48
2021/12/09 03:31:05;;;;;;;;;0.75;0.75;;;;;5.39;65.60;100262.84;4979389;28;45344;-48
2021/12/09 03:33:31;;;;;;;;;3.25;1.25;;;;;5.45;65.92;100285.28;4978816;28;46046;-49
2021/12/09 03:36:00;;;;;;;;;1.00;1.00;;;;;5.42;66.00;100275.81;4978995;28;45472;-56
2021/12/09 03:38:26;;;;;;;;;1.00;1.00;;;;;5.45;65.64;100291.38;4978357;28;45396;-54
2021/12/09 03:40:51;;;;;;;;;1.25;1.00;;;;;5.49;65.48;100291.97;4977694;28;45445;-47
2021/12/09 03:43:17;;;;;;;;;1.00;1.00;;;;;5.51;65.71;100287.41;4978666;28;46516;-48
2021/12/09 03:45:42;;;;;;;;;2.50;1.25;;;;;5.53;65.88;100285.50;4977204;28;45367;-50
2021/12/09 03:48:08;;;;;;;;;0.75;0.75;;;;;5.57;65.10;100291.38;4979048;28;45797;-49
2021/12/09 03:50:35;;;;;;;;;0.75;0.75;;;;;5.53;65.06;100287.31;4978999;28;45545;-48
2021/12/09 03:53:00;;;;;;;;;1.50;1.00;;;;;5.60;65.93;100299.84;4978357;28;45488;-48
2021/12/09 03:55:25;;;;;;;;;0.00;0.00;;;;;5.63;65.23;100298.75;4975968;28;45335;-49
2021/12/09 03:57:51;;;;;;;;;2.50;1.75;;;;;5.60;65.01;100305.13;4978594;28;45427;-52
2021/12/09 04:00:16;;;;;;;;;3.50;0.75;;;;;5.62;65.65;100303.22;4978885;28;45443;-49
2021/12/09 04:02:42;;;;;;;;;2.00;1.00;;;;;5.61;65.90;100304.19;4978567;28;45390;-48
2021/12/09 04:05:08;;;;;;;;;1.75;1.75;;;;;5.59;64.82;100307.91;4978624;28;45256;-49
2021/12/09 04:07:34;;;;;;;;;1.50;1.50;;;;;5.61;65.45;100306.81;4977820;28;45419;-51
2021/12/09 04:10:00;;;;;;;;;2.00;0.00;;;;;5.63;65.31;100317.22;4978649;28;45446;-53
2021/12/09 04:12:26;;;;;;;;;2.00;2.00;;;;;5.58;65.83;100311.50;4978381;28;45421;-49
2021/12/09 04:14:52;;;;;;;;;0.25;0.25;;;;;5.61;65.18;100312.09;4978031;28;45521;-48
2021/12/09 04:17:18;;;;;;;;;1.00;1.00;;;;;5.65;65.35;100315.31;4978439;28;45485;-50
2021/12/09 04:19:47;;;;;;;;;4.50;0.00;;;;;5.67;65.27;100326.56;4978495;28;45452;-49
2021/12/09 04:22:14;;;;;;;;;1.50;1.25;;;;;5.66;65.23;100319.63;4978251;28;47119;-48
2021/12/09 04:24:40;;;;;;;;;2.00;1.00;;;;;5.53;65.35;100300.50;4978095;28;45427;-47
2021/12/09 04:27:05;;;;;;;;;0.75;0.75;;;;;5.57;65.23;100301.91;4978271;28;45366;-48
2021/12/09 04:29:30;;;;;;;;;1.00;1.00;;;;;5.62;65.68;100324.31;4978251;28;45446;-48
2021/12/09 04:31:56;;;;;;;;;4.00;0.00;;;;;5.62;65.57;100315.56;4978055;28;46968;-50
2021/12/09 04:34:21;;;;;;;;;4.00;0.75;;;;;5.52;65.79;100307.56;4977959;28;45424;-56
2021/12/09 04:36:47;;;;;;;;;1.00;1.00;;;;;5.57;65.29;100307.19;4978207;28;45366;-48
2021/12/09 04:39:13;;;;;;;;;1.75;1.00;;;;;5.62;65.06;100315.56;4978527;28;45320;-48
2021/12/09 04:41:39;;;;;;;;;1.00;1.00;;;;;5.63;64.95;100320.72;4977552;28;47012;-55
2021/12/09 04:44:05;;;;;;;;;2.00;1.50;;;;;5.64;65.19;100317.09;4977878;28;45268;-51
2021/12/09 04:46:31;;;;;;;;;1.00;0.00;;;;;5.64;65.57;100305.72;4977044;28;45549;-52
2021/12/09 04:48:56;;;;;;;;;0.75;0.75;;;;;5.63;65.26;100320.72;4978107;28;45418;-48
2021/12/09 04:51:22;;;;;;;;;5.00;1.00;;;;;5.63;65.25;100318.06;4977814;28;46318;-48
2021/12/09 04:53:48;;;;;;;;;2.00;0.75;;;;;5.64;65.98;100324.19;4977746;28;45497;-48
2021/12/09 04:56:13;;;;;;;;;3.50;0.75;;;;;5.68;64.69;100318.53;4978176;28;45388;-49
2021/12/09 04:58:38;;;;;;;;;3.00;2.00;;;;;5.59;65.35;100306.09;4977949;28;45738;-48
2021/12/09 05:01:05;;;;;;;;;0.75;0.75;;;;;5.63;65.15;100318.06;4977687;28;45974;-51
2021/12/09 05:03:31;;;;;;;;;1.25;1.25;;;;;5.64;65.49;100325.00;4977650;28;45366;-55
2021/12/09 05:05:58;;;;;;;;;0.00;0.00;;;;;5.59;65.15;100324.56;4977568;28;45257;-51
2021/12/09 05:08:27;;;;;;;;;1.50;0.50;;;;;5.66;65.34;100336.31;4977908;28;45374;-47
2021/12/09 05:13:24;;;;;;;;;0.50;0.50;;;;;5.64;65.59;100322.38;4977029;28;45453;-52
2021/12/09 05:15:50;;;;;;;;;3.00;1.50;;;;;5.66;65.41;100341.56;4977529;28;45331;-56
2021/12/09 05:18:16;;;;;;;;;2.25;1.00;;;;;5.64;65.37;100332.94;4977428;28;45181;-47
2021/12/09 05:20:43;;;;;;;;;4.75;2.00;;;;;5.62;65.08;100329.59;4977131;28;46002;-54
2021/12/09 05:23:08;;;;;;;;;3.50;1.00;;;;;5.64;65.63;100332.94;4977357;28;45340;-50
2021/12/09 05:25:34;;;;;;;;;2.00;0.75;;;;;5.65;65.41;100328.53;4977486;28;45461;-48
2021/12/09 05:27:59;;;;;;;;;2.50;2.50;;;;;5.68;65.46;100330.88;4977429;28;45554;-48
2021/12/09 05:30:37;;;;;;;;;5.00;1.25;;;;;5.67;65.44;100332.69;4977056;28;46334;-49
2021/12/09 05:33:03;;;;;;;;;3.50;1.75;;;;;5.66;65.11;100336.31;4977123;28;45330;-47
2021/12/09 05:35:28;;;;;;;;;7.00;1.00;;;;;5.64;65.44;100327.66;4977333;28;45403;-47
2021/12/09 05:37:54;;;;;;;;;5.25;4.50;;;;;5.65;65.11;100331.16;4977539;28;45359;-47
2021/12/09 05:40:21;;;;;;;;;6.00;2.00;;;;;5.57;65.33;100315.09;4976825;28;46111;-47
2021/12/09 05:42:46;;;;;;;;;2.50;2.00;;;;;5.64;65.46;100327.66;4977083;28;45380;-50
2021/12/09 05:45:12;;;;;;;;;1.00;1.00;;;;;5.65;65.79;100339.91;4977079;28;45501;-49
2021/12/09 05:47:38;;;;;;;;;5.00;2.00;;;;;5.63;65.91;100343.63;4977557;28;45311;-48
2021/12/09 05:50:05;;;;;;;;;2.00;2.00;;;;;5.59;65.38;100329.84;4976901;28;47125;-48
2021/12/09 05:52:30;;;;;;;;;8.00;4.00;;;;;5.59;65.63;100340.38;4974431;28;45382;-47
2021/12/09 05:54:55;;;;;;;;;4.00;2.00;;;;;5.56;65.59;100342.44;4976726;28;45322;-48
2021/12/09 05:57:21;;;;;;;;;8.00;2.00;;;;;5.55;65.81;100343.41;4976145;28;45441;-49
2021/12/09 05:59:46;;;;;;;;;5.00;3.00;;;;;5.51;65.63;100342.81;4976615;28;47190;-48
2021/12/09 06:02:15;;;;;;;;;5.75;2.00;;;;;5.49;65.46;100347.38;4976748;28;45376;-50
2021/12/09 06:04:42;;;;;;;;;3.25;2.00;;;;;5.50;66.34;100341.13;4976756;28;45271;-55
2021/12/09 06:07:08;;;;;;;;;8.75;5.00;;;;;5.50;65.84;100347.25;4977077;28;45323;-48
2021/12/09 06:09:34;;;;;;;;;2.00;2.00;;;;;5.47;65.59;100346.66;4976570;28;46435;-49
2021/12/09 06:11:59;;;;;;;;;2.50;1.75;;;;;5.51;65.68;100363.91;4976546;28;45476;-47
2021/12/09 06:14:24;;;;;;;;;1.00;1.00;;;;;5.48;65.85;100348.34;4976692;28;45304;-48
2021/12/09 06:16:50;;;;;;;;;4.00;3.00;;;;;5.57;65.62;100360.78;4977003;28;45327;-48
2021/12/09 06:19:15;;;;;;;;;11.00;4.00;;;;;5.57;66.13;100358.16;4976737;28;46166;-48
2021/12/09 06:21:41;;;;;;;;;3.75;3.00;;;;;5.57;65.52;100360.78;4975900;28;45502;-48
2021/12/09 06:24:06;;;;;;;;;4.00;1.25;;;;;5.49;66.08;100344.75;4976822;28;45324;-49
2021/12/09 06:26:33;;;;;;;;;7.25;3.50;;;;;5.57;65.78;100360.78;4976962;28;45423;-47
2021/12/09 06:28:59;;;;;;;;;7.50;2.00;;;;;5.57;66.06;100363.44;4975910;28;45533;-48
2021/12/09 06:31:26;;;;;;;;;2.00;2.00;;;;;5.53;66.03;100362.00;4976169;28;45433;-51
2021/12/09 06:33:51;;;;;;;;;2.00;2.00;;;;;5.42;65.69;100351.47;4976366;28;45411;-51
2021/12/09 06:36:18;;;;;;;;;4.00;2.00;;;;;5.51;65.99;100372.66;4976474;28;45383;-50
2021/12/09 06:38:44;;;;;;;;;6.00;4.75;;;;;5.47;66.18;100373.88;4976184;28;46913;-50
2021/12/09 06:41:10;;;;;;;;;7.00;4.00;;;;;5.45;66.63;100381.09;4976120;28;45399;-47
2021/12/09 06:43:42;;;;;;;;;5.00;3.50;;;;;5.45;65.81;100367.91;4976162;28;45405;-48
2021/12/09 06:46:10;;;;;;;;;5.00;4.75;;;;;5.41;65.82;100377.00;4976627;28;45358;-49
2021/12/09 06:48:36;;;;;;;;;2.00;2.00;;;;;5.40;65.78;100377.16;4976280;28;45954;-53
2021/12/09 06:51:05;;;;;;;;;6.00;6.00;;;;;5.39;66.08;100389.47;4976118;28;45490;-48
2021/12/09 06:53:32;;;;;;;;;4.75;4.75;;;;;5.40;65.87;100393.81;4976362;28;45232;-50
2021/12/09 06:55:57;;;;;;;;;7.00;4.75;;;;;5.41;65.65;100394.66;4976224;28;45168;-51
2021/12/09 06:58:24;;;;;;;;;5.00;4.00;;;;;5.40;66.47;100393.81;4975906;28;45978;-49
2021/12/09 07:00:51;;;;;;;;;8.50;5.00;;;;;5.41;66.87;100392.00;4976041;28;45473;-46
2021/12/09 07:03:17;;;;;;;;;8.50;3.00;;;;;5.36;66.34;100384.47;4976058;28;45316;-49
2021/12/09 07:05:47;;;;;;;;;7.00;3.50;;;;;5.31;66.16;100394.53;4979278;28;45475;-48
2021/12/09 07:08:13;;;;;;;;;6.75;5.00;;;;;5.28;66.58;100388.66;4979163;28;46056;-50
2021/12/09 07:10:39;;;;;;;;;4.25;2.50;;;;;5.30;66.42;100394.66;4979218;28;45391;-46
2021/12/09 07:13:05;;;;;;;;;6.25;6.25;;;;;5.29;66.19;100401.72;4978760;28;45438;-47
2021/12/09 07:15:31;;;;;;;;;7.25;4.75;;;;;5.16;66.65;100377.28;4979276;28;45483;-47
2021/12/09 07:17:56;;;;;;;;;7.75;4.00;;;;;5.24;67.00;100395.97;4978376;28;45438;-48
2021/12/09 07:20:25;;;;;;;;;4.50;3.50;;;;;5.20;66.96;100392.75;4979146;28;45329;-50
2021/12/09 07:22:51;;;;;;;;;6.50;6.50;;;;;5.17;66.03;100403.50;4979236;28;45336;-54
2021/12/09 07:25:19;;;;;;;;;5.50;3.50;;;;;5.15;66.72;100388.78;4979561;28;45230;-50
2021/12/09 07:27:44;;;;;;;;;7.50;5.00;;;;;5.12;67.32;100391.66;4978811;28;47031;-47
2021/12/09 07:30:11;;;;;;;;;8.50;6.75;;;;;5.09;67.44;100398.00;4976720;28;45461;-47
2021/12/09 07:32:37;;;;;;;;;7.00;4.50;;;;;5.08;66.96;100392.88;4978955;28;45476;-56
2021/12/09 07:35:05;;;;;;;;;4.75;3.50;;;;;5.07;66.11;100391.19;4979172;28;45170;-50
2021/12/09 07:37:30;;;;;;;;;8.25;5.00;;;;;5.02;67.00;100388.91;4979206;28;47482;-49
2021/12/09 07:39:56;;;;;;;;;7.50;7.00;;;;;5.01;67.21;100395.13;4979032;28;45327;-50
2021/12/09 07:42:21;;;;;;;;;11.00;8.00;;;;;4.99;67.54;100391.78;4979242;28;45424;-57
2021/12/09 07:44:47;;;;;;;;;7.50;4.00;;;;;4.97;67.57;100396.31;4961542;28;45550;-59
2021/12/09 07:47:12;;;;;;;;;11.25;6.00;;;;;4.85;66.96;100381.50;4979104;28;46168;-56
2021/12/09 07:49:38;;;;;;;;;7.00;7.00;;;;;4.96;66.62;100397.28;4978984;28;45373;-49
2021/12/09 07:52:04;;;;;;;;;8.00;7.00;;;;;4.96;67.38;100405.19;4977486;28;45695;-57
2021/12/09 07:54:31;;;;;;;;;7.00;4.75;;;;;4.91;67.86;100400.28;4978944;28;45361;-57
2021/12/09 07:56:56;;;;;;;;;7.00;6.50;;;;;4.89;67.36;100390.84;4978329;28;45458;-48
2021/12/09 07:59:22;;;;;;;;;11.25;8.75;;;;;5.00;66.84;100404.00;4977906;28;45498;-48
2021/12/09 08:01:48;;;;;;;;;8.00;6.00;;;;;5.00;67.63;100406.63;4976359;28;45267;-50
2021/12/09 08:04:14;;;;;;;;;9.25;7.00;;;;;4.95;66.88;100392.97;4978510;28;45379;-60
2021/12/09 08:06:40;;;;;;;;;10.50;7.50;;;;;4.95;67.08;100385.06;4978556;28;46054;-59
2021/12/09 08:09:08;;;;;;;;;6.50;5.50;;;;;4.93;66.98;100384.34;4978262;28;45458;-50
2021/12/09 08:11:36;;;;;;;;;8.00;8.00;;;;;5.05;67.29;100399.19;4976975;28;45477;-60
2021/12/09 08:14:03;;;;;;;;;7.75;6.00;;;;;5.08;66.78;100401.59;4977711;28;45506;-55
2021/12/09 08:16:31;;;;;;;;;9.00;2.00;;;;;5.11;66.94;100397.91;4976331;28;47005;-54
2021/12/09 08:18:56;;;;;;;;;12.50;8.50;;;;;5.13;66.51;100407.34;4976903;28;45583;-55
2021/12/09 08:21:27;;;;;;;;;5.50;5.50;;;;;5.15;66.27;100412.53;4977816;28;45494;-49
2021/12/09 08:23:53;;;;;;;;;7.00;4.75;;;;;5.20;66.78;100410.38;4976752;28;45426;-50
2021/12/09 08:26:20;;;;;;;;;6.50;5.00;;;;;5.26;66.25;100408.06;4959725;28;47431;-49
2021/12/09 08:28:45;;;;;;;;;7.00;7.00;;;;;5.32;65.99;100405.94;4977583;28;45367;-57
2021/12/09 08:31:11;;;;;;;;;4.00;4.00;;;;;5.36;65.91;100399.44;4977181;28;45315;-59
2021/12/09 08:33:36;;;;;;;;;9.50;4.50;;;;;5.42;66.45;100396.31;4977549;28;45468;-61
2021/12/09 08:36:02;;;;;;;;;5.50;3.50;;;;;5.44;66.20;100394.41;4977152;28;45452;-59
2021/12/09 08:38:28;;;;;;;;;8.75;4.00;;;;;5.51;65.20;100401.69;4976949;28;45857;-51
2021/12/09 08:40:54;;;;;;;;;8.00;6.25;;;;;5.58;65.56;100403.84;4977316;28;45455;-47
2021/12/09 08:43:20;;;;;;;;;7.50;3.75;;;;;5.48;65.24;100378.22;4977120;28;45442;-57
2021/12/09 08:45:48;;;;;;;;;5.75;5.50;;;;;5.66;64.94;100404.06;4976619;28;46256;-60
2021/12/09 08:48:13;;;;;;;;;5.75;5.75;;;;;5.71;64.46;100396.63;4977012;28;45411;-56
2021/12/09 08:50:42;;;;;;;;;9.50;7.75;;;;;5.80;64.82;100406.44;4959534;28;45452;-60
2021/12/09 08:53:11;;;;;;;;;6.50;6.50;;;;;5.85;64.44;100408.69;4977192;28;45373;-60
2021/12/09 08:55:38;;;;;;;;;10.50;6.50;;;;;5.94;64.27;100407.97;4959159;28;46373;-53
2021/12/09 08:58:04;;;;;;;;;8.25;6.00;;;;;6.01;63.76;100417.06;4976895;28;45336;-59
2021/12/09 09:00:32;;;;;;;;;16.00;6.00;;;;;6.10;64.29;100424.25;4958922;28;45385;-57
2021/12/09 09:02:59;;;;;;;;;7.25;6.00;;;;;6.13;64.14;100429.28;4976672;28;45396;-57
2021/12/09 09:05:27;;;;;;;;;13.00;6.00;;;;;6.22;64.40;100432.97;4976695;28;46188;-59
2021/12/09 09:07:53;;;;;;;;;5.75;4.00;;;;;6.36;63.75;100431.81;4975366;28;45547;-56
2021/12/09 09:10:22;;;;;;;;;6.50;4.00;;;;;6.74;62.79;100434.75;4974351;28;45381;-58
2021/12/09 09:12:48;;;;;;;;;6.50;5.75;;;;;7.22;61.76;100439.44;4975334;28;45480;-58
2021/12/09 09:15:17;;;;;;;;;15.50;8.50;;;;;7.69;61.04;100439.75;4976102;28;47064;-59
2021/12/09 09:17:42;;;;;;;;;10.75;7.00;;;;;8.23;59.28;100449.03;4976774;28;45441;-60
2021/12/09 09:20:11;;;;;;;;;9.25;6.00;;;;;8.73;57.98;100445.44;4976779;28;45363;-59
2021/12/09 09:22:38;;;;;;;;;10.00;9.00;;;;;9.24;56.54;100449.47;4976667;28;45367;-58
2021/12/09 09:25:05;;;;;;;;;7.50;6.00;;;;;9.78;55.16;100434.56;4974429;28;46191;-57
2021/12/09 09:27:30;;;;;;;;;7.00;5.25;;;;;10.63;53.72;100449.19;4976034;28;45344;-61
2021/12/09 09:29:56;;;;;;;;;5.67;5.67;;;;;11.67;51.56;100449.13;4976179;28;45468;-61
2021/12/09 09:32:22;;;;;;;;;9.67;5.67;;;;;12.69;49.11;100444.47;4976911;28;45567;-60
2021/12/09 09:34:48;;;;;;;;;10.00;6.00;;;;;13.70;47.56;100444.75;4976135;28;45995;-58
2021/12/09 09:37:13;;;;;;;;;6.00;5.67;;;;;14.56;45.07;100437.53;4976412;28;45327;-53
2021/12/09 09:39:42;;;;;;;;;6.67;6.33;;;;;15.11;43.52;100441.69;4976858;28;45327;-61
2021/12/09 09:44:54;;;;;;;;;6.67;5.00;;;;;15.94;41.58;100451.28;4976347;28;45755;-60
2021/12/09 09:47:21;;;;;;;;;9.67;5.33;;;;;15.63;41.22;100448.81;4976047;28;45434;-54
2021/12/09 09:49:47;;;;;;;;;8.00;3.00;;;;;15.64;41.15;100447.84;4976379;28;45498;-61
2021/12/09 09:52:13;;;;;;;;;7.00;5.33;;;;;15.48;41.62;100458.72;4976496;28;45483;-55
2021/12/09 09:54:40;;;;;;;;;6.67;5.33;;;;;15.87;41.16;100461.09;4976204;28;45459;-56
2021/12/09 09:57:07;;;;;;;;;5.33;5.33;;;;;16.46;39.93;100468.97;4976060;28;45430;-59
2021/12/09 09:59:32;;;;;;;;;8.67;3.67;;;;;17.01;38.54;100461.19;4976083;28;45434;-51
2021/12/09 10:01:58;;;;;;;;;7.00;5.00;;;;;17.33;38.27;100462.44;4976176;28;45363;-59
2021/12/09 10:04:37;;;;;;;;;4.00;2.00;;;;;17.59;37.85;100458.25;4975894;28;46496;-58
2021/12/09 10:07:04;;;;;;;;;6.00;3.00;;;;;17.83;37.30;100451.56;4975984;28;45494;-51
2021/12/09 10:09:30;;;;;;;;;6.33;4.00;;;;;17.98;36.01;100432.56;4975917;28;45463;-49
2021/12/09 10:11:56;;;;;;;;;5.00;3.33;;;;;18.45;35.31;100453.16;4976001;28;45420;-60
2021/12/09 10:14:25;;;;;;;;;3.33;2.67;;;;;18.71;34.99;100447.00;4975093;28;45434;-50
2021/12/09 10:17:08;;;;;;;;;6.67;3.67;;;;;19.00;35.51;100450.28;4975515;28;45418;-53
2021/12/09 10:19:37;;;;;;;;;6.67;5.00;;;;;19.40;34.37;100443.78;4975889;28;45446;-58
2021/12/09 10:22:04;;;;;;;;;9.00;6.00;;;;;19.43;33.95;100434.47;4976138;28;45466;-59
2021/12/09 10:24:31;;;;;;;;;5.00;4.00;;;;;19.56;34.22;100426.31;4989947;28;45440;-59
2021/12/09 10:26:57;;;;;;;;;7.00;5.33;;;;;18.98;34.17;100434.34;4995014;28;45378;-52
2021/12/09 10:29:40;;;;;;;;;5.00;3.67;;;;;19.27;35.29;100427.66;4995421;28;45407;-49
2021/12/09 10:32:10;;;;;;;;;4.67;4.33;;;;;18.88;33.93;100423.16;4995394;28;45546;-60
2021/12/09 10:34:40;;;;;;;;;5.00;5.00;;;;;17.80;35.88;100422.34;4994501;28;46514;-58
2021/12/09 10:37:11;;;;;;;;;5.33;3.67;;;;;16.94;37.71;100414.66;4977273;28;45901;-53
2021/12/09 10:39:38;;;;;;;;;4.67;4.67;;;;;16.61;38.12;100419.75;4997612;28;45442;-59
2021/12/09 10:42:08;;;;;;;;;5.00;5.00;;;;;17.03;38.53;100416.16;4998676;28;45300;-59
2021/12/09 10:44:37;;;;;;;;;3.33;3.33;;;;;17.51;37.22;100418.06;4998393;28;45454;-60
2021/12/09 10:47:12;;;;;;;;;6.00;6.00;;;;;17.26;37.88;100412.34;4998263;28;45322;-50
2021/12/09 10:49:49;;;;;;;;;8.67;3.33;;;;;16.68;37.85;100413.38;4998515;28;45337;-54
2021/12/09 10:52:24;;;;;;;;;7.33;4.00;;;;;17.24;39.08;100409.06;4998473;28;45467;-58
2021/12/09 10:54:50;;;;;;;;;8.00;5.33;;;;;17.92;36.05;100385.75;4997999;28;46250;-60
2021/12/09 10:57:31;;;;;;;;;5.67;4.33;;;;;17.70;37.00;100398.50;4998403;28;45443;-52
2021/12/09 10:59:57;;;;;;;;;7.67;5.00;;;;;17.70;36.01;100396.66;4998604;28;45398;-49
2021/12/09 11:02:24;;;;;;;;;8.67;4.00;;;;;18.22;35.34;100388.91;4998201;28;45501;-52
2021/12/09 11:05:05;;;;;;;;;3.67;3.67;;;;;18.03;36.55;100387.00;4997936;28;45452;-52
2021/12/09 11:07:31;;;;;;;;;4.00;4.00;;;;;17.69;35.42;100386.06;4998170;28;45548;-52
2021/12/09 11:10:32;;;;;;;;;6.00;4.67;;;;;17.40;36.43;100388.03;4998123;28;45463;-53
2021/12/09 11:12:58;;;;;;;;;5.33;4.33;;;;;17.11;37.09;100397.19;4937497;28;45536;-56
2021/12/09 11:15:45;;;;;;;;;4.67;3.33;;;;;17.06;37.01;100386.19;4936855;28;46022;-49
2021/12/09 11:18:33;;;;;;;;;9.67;4.67;;;;;17.67;36.95;100385.44;4936942;28;45694;-48
2021/12/09 11:21:02;;;;;;;;;2.67;2.67;;;;;18.33;35.33;100371.31;4937114;28;45530;-48
2021/12/09 11:23:43;;;;;;;;;6.67;4.00;;;;;18.68;36.32;100372.75;4937378;28;45548;-48
2021/12/09 11:29:10;;;;;;;;;7.33;5.67;;;;;18.74;34.52;100362.22;4937022;28;45435;-47
2021/12/09 11:31:44;;;;;;;;;13.00;6.33;;;;;19.00;34.63;100370.25;4936772;28;45462;-50
2021/12/09 11:34:14;;;;;;;;;6.00;5.00;;;;;19.25;33.71;100366.88;4937151;28;45502;-52
2021/12/09 11:36:47;;;;;;;;;8.33;5.00;;;;;19.15;33.75;100362.75;4936763;28;46226;-50
2021/12/09 11:39:23;;;;;;;;;4.33;4.33;;;;;18.82;35.80;100362.00;4936693;28;45440;-49
2021/12/09 11:41:49;;;;;;;;;6.33;5.00;;;;;18.33;34.88;100366.78;4936784;28;45982;-49
2021/12/09 11:44:16;;;;;;;;;6.00;4.67;;;;;17.98;36.29;100355.34;4937159;28;45416;-49
2021/12/09 11:46:47;;;;;;;;;6.67;4.00;;;;;17.30;36.51;100368.75;4960154;28;46332;-48
2021/12/09 11:49:12;;;;;;;;;11.67;8.00;;;;;16.65;38.06;100368.13;4996461;28;45372;-48
2021/12/09 11:51:39;;;;;;;;;5.33;5.33;;;;;16.16;38.40;100373.50;4996428;28;45406;-49
2021/12/09 11:54:08;;;;;;;;;7.67;4.67;;;;;15.88;39.44;100368.03;4997633;28;45236;-50
2021/12/09 12:15:00;;;;;;;;;6.33;5.33;;;;;15.91;39.84;100339.00;4997148;28;45413;-48
2021/12/09 12:17:34;;;;;;;;;4.00;3.33;;;;;16.27;39.50;100350.69;4996950;28;45465;-49
2021/12/09 12:39:33;;;;;;;;;4.33;4.00;;;;;16.79;38.56;100336.00;4935973;28;46182;-48
2021/12/09 12:42:05;;;;;;;;;6.00;5.00;;;;;16.59;38.09;100333.16;4936120;28;45895;-57
2021/12/09 12:44:31;;;;;;;;;11.33;7.67;;;;;16.82;37.81;100341.84;4935735;28;45850;-47
2021/12/09 12:47:18;;;;;;;;;6.00;4.33;;;;;16.88;37.37;100332.13;4935961;28;45437;-49
2021/12/09 12:50:07;;;;;;;;;9.67;6.00;;;;;16.13;38.57;100336.31;4935710;28;45515;-54
2021/12/09 12:52:33;;;;;;;;;7.67;4.00;;;;;14.92;40.53;100346.66;4935734;28;45389;-51
2021/12/09 12:55:12;;;;;;;;;7.00;3.00;;;;;14.02;41.90;100332.41;4935649;28;45349;-50
2021/12/09 12:57:43;;;;;;;;;3.00;3.00;;;;;13.51;43.61;100346.28;4935891;28;45408;-48
2021/12/09 13:00:16;;;;;;;;;3.00;3.00;;;;;13.02;44.08;100350.97;4935482;28;45618;-53
2021/12/09 13:05:52;;;;;;;;;4.00;3.33;;;;;12.33;45.95;100340.78;4996427;28;45314;-46
2021/12/09 13:19:08;;;;;;;;;4.67;2.00;;;;;11.65;47.47;100349.84;4996354;28;45609;-49
2021/12/09 13:21:58;;;;;;;;;7.00;3.00;;;;;11.44;48.54;100344.16;4996240;28;46201;-49
2021/12/09 13:25:05;;;;;;;;;3.00;3.00;;;;;11.32;48.82;100358.75;4996178;28;45505;-59
2021/12/09 13:33:02;;;;;;;;;9.67;6.00;;;;;10.78;50.21;100344.84;4995752;28;46261;-57
2021/12/09 13:46:47;;;;;;;;;6.00;3.67;;;;;10.36;51.84;100353.53;4995886;28;45360;-48
2021/12/09 13:54:25;;;;;;;;;8.00;3.00;;;;;10.12;52.34;100343.53;4995543;28;45675;-53
2021/12/09 13:57:04;;;;;;;;;8.33;3.00;;;;;10.08;53.03;100343.00;4995507;28;45455;-47
2021/12/09 13:59:34;;;;;;;;;6.00;6.00;;;;;9.97;52.52;100336.09;4994390;28;45718;-49
2021/12/09 14:02:12;;;;;;;;;9.67;5.00;;;;;9.91;52.56;100349.16;4995599;28;45410;-54
2021/12/09 14:04:38;;;;;;;;;6.00;4.33;;;;;9.80;53.63;100342.25;4995880;28;45322;-57
2021/12/09 14:07:20;;;;;;;;;6.00;6.00;;;;;9.77;53.18;100342.53;4996108;28;46106;-57
2021/12/09 14:09:58;;;;;;;;;5.00;5.00;;;;;9.68;53.64;100331.00;4995968;28;45272;-57
2021/12/09 14:12:39;;;;;;;;;9.00;7.00;;;;;9.70;53.29;100326.41;4996226;28;45386;-56
2021/12/09 14:15:08;;;;;;;;;8.33;7.00;;;;;9.70;53.57;100326.41;4995320;28;46006;-57
2021/12/09 14:17:38;;;;;;;;;15.00;7.67;;;;;9.71;54.36;100333.38;4995943;28;45570;-58
2021/12/09 14:20:14;;;;;;;;;6.67;6.67;;;;;9.67;54.51;100328.50;4996004;28;45308;-54
2021/12/09 14:22:40;;;;;;;;;7.00;5.00;;;;;9.59;54.36;100333.75;4996374;28;45429;-59
2021/12/09 14:25:23;;;;;;;;;8.67;3.00;;;;;9.49;54.69;100329.34;4995610;28;46288;-56
2021/12/09 14:27:49;;;;;;;;;9.33;3.67;;;;;9.48;54.45;100327.66;4995665;28;45327;-50
2021/12/09 14:30:16;;;;;;;;;6.33;5.00;;;;;9.41;54.97;100323.94;4996110;28;45398;-58
2021/12/09 14:32:52;;;;;;;;;6.00;5.00;;;;;9.37;54.86;100319.06;4996095;28;45442;-56
2021/12/09 14:35:22;;;;;;;;;6.00;5.67;;;;;9.32;54.21;100322.19;4995569;28;45456;-54
2021/12/09 14:37:50;;;;;;;;;5.33;5.00;;;;;9.26;54.82;100317.44;4995327;28;45399;-54
2021/12/09 14:40:20;;;;;;;;;3.00;3.00;;;;;9.16;55.84;100312.22;4995802;28;45390;-49
2021/12/09 14:42:54;;;;;;;;;3.33;3.33;;;;;9.08;56.36;100304.16;4995874;28;45405;-61
2021/12/09 14:45:22;;;;;;;;;9.67;6.00;;;;;9.06;56.29;100314.09;4993770;28;45479;-58
2021/12/09 14:48:13;;;;;;;;;8.33;5.00;;;;;8.98;55.69;100319.28;4995754;28;45450;-56
2021/12/09 14:50:46;;;;;;;;;7.00;5.00;;;;;8.92;56.04;100320.69;4992618;28;45390;-59
2021/12/09 14:53:26;;;;;;;;;7.67;5.33;;;;;8.77;57.66;100308.91;4996018;28;45351;-58
2021/12/09 14:55:51;;;;;;;;;7.00;5.00;;;;;8.84;56.77;100325.06;4995457;28;45339;-57
2021/12/09 14:58:22;;;;;;;;;6.00;3.67;;;;;8.75;57.13;100317.00;4995547;28;45358;-58
2021/12/09 15:01:04;;;;;;;;;6.67;6.67;;;;;8.69;57.57;100308.81;4995001;28;45383;-54
2021/12/09 15:03:40;;;;;;;;;6.00;3.33;;;;;8.68;57.71;100317.72;4995410;28;45567;-60
2021/12/09 15:06:07;;;;;;;;;6.00;6.00;;;;;8.65;58.57;100307.41;4995089;28;47127;-59
2021/12/09 15:08:46;;;;;;;;;8.00;5.00;;;;;8.27;57.80;100250.03;4995452;28;45383;-55